sensor_id;sensor_type;location;lat;lon;timestamp;P1;durP1;ratioP1;P2;durP2;ratioP2
25535;SDS011;13431;51.352;6.412;2022-08-19T00:01:52;24.27;;;22.23;;
25535;SDS011;13431;51.352;6.412;2022-08-19T00:04:22;26.33;;;23.98;;
25535;SDS011;13431;51.352;6.412;2022-08-19T00:06:53;26.05;;;23.67;;
25535;SDS011;13431;51.352;6.412;2022-08-19T00:09:21;24.58;;;22.55;;
25535;SDS011;13431;51.352;6.412;2022-08-19T00:11:49;25.20;;;23.17;;
25535;SDS011;13431;51.352;6.412;2022-08-19T00:14:18;25.23;;;23.23;;
25535;SDS011;13431;51.352;6.412;2022-08-19T00:16:47;25.77;;;23.48;;
25535;SDS011;13431;51.352;6.412;2022-08-19T00:19:15;24.67;;;22.48;;
25535;SDS011;13431;51.352;6.412;2022-08-19T00:21:43;26.02;;;23.67;;
25535;SDS011;13431;51.352;6.412;2022-08-19T00:24:12;26.10;;;23.77;;
25535;SDS011;13431;51.352;6.412;2022-08-19T00:26:41;24.27;;;22.17;;
25535;SDS011;13431;51.352;6.412;2022-08-19T00:29:12;27.02;;;24.60;;
25535;SDS011;13431;51.352;6.412;2022-08-19T00:31:41;24.92;;;22.77;;
25535;SDS011;13431;51.352;6.412;2022-08-19T00:34:10;24.65;;;22.48;;
25535;SDS011;13431;51.352;6.412;2022-08-19T00:36:39;24.90;;;22.70;;
25535;SDS011;13431;51.352;6.412;2022-08-19T00:39:07;23.92;;;21.92;;
25535;SDS011;13431;51.352;6.412;2022-08-19T00:41:35;25.80;;;23.70;;
25535;SDS011;13431;51.352;6.412;2022-08-19T00:44:11;26.77;;;24.48;;
25535;SDS011;13431;51.352;6.412;2022-08-19T00:46:42;27.00;;;24.17;;
25535;SDS011;13431;51.352;6.412;2022-08-19T00:51:55;26.90;;;24.70;;
25535;SDS011;13431;51.352;6.412;2022-08-19T00:54:27;27.08;;;24.58;;
25535;SDS011;13431;51.352;6.412;2022-08-19T00:56:57;25.08;;;22.98;;
25535;SDS011;13431;51.352;6.412;2022-08-19T00:59:26;25.67;;;23.40;;
25535;SDS011;13431;51.352;6.412;2022-08-19T01:02:15;26.42;;;24.17;;
25535;SDS011;13431;51.352;6.412;2022-08-19T01:04:43;27.00;;;24.73;;
25535;SDS011;13431;51.352;6.412;2022-08-19T01:07:11;26.83;;;24.42;;
25535;SDS011;13431;51.352;6.412;2022-08-19T01:09:45;27.02;;;24.55;;
25535;SDS011;13431;51.352;6.412;2022-08-19T01:12:13;27.80;;;25.33;;
25535;SDS011;13431;51.352;6.412;2022-08-19T01:14:41;28.05;;;25.48;;
25535;SDS011;13431;51.352;6.412;2022-08-19T01:17:10;27.80;;;25.35;;
25535;SDS011;13431;51.352;6.412;2022-08-19T01:19:39;28.77;;;26.08;;
25535;SDS011;13431;51.352;6.412;2022-08-19T01:24:59;25.80;;;23.27;;
25535;SDS011;13431;51.352;6.412;2022-08-19T01:27:36;26.55;;;23.98;;
25535;SDS011;13431;51.352;6.412;2022-08-19T01:30:11;26.42;;;24.13;;
25535;SDS011;13431;51.352;6.412;2022-08-19T01:32:40;26.05;;;23.77;;
25535;SDS011;13431;51.352;6.412;2022-08-19T01:35:10;26.15;;;23.85;;
25535;SDS011;13431;51.352;6.412;2022-08-19T01:37:43;28.05;;;25.27;;
25535;SDS011;13431;51.352;6.412;2022-08-19T01:40:16;28.17;;;25.63;;
25535;SDS011;13431;51.352;6.412;2022-08-19T01:42:47;29.55;;;26.75;;
25535;SDS011;13431;51.352;6.412;2022-08-19T01:45:16;29.92;;;27.05;;
25535;SDS011;13431;51.352;6.412;2022-08-19T01:47:44;30.33;;;27.58;;
25535;SDS011;13431;51.352;6.412;2022-08-19T01:50:27;30.85;;;27.90;;
25535;SDS011;13431;51.352;6.412;2022-08-19T01:52:57;30.52;;;27.83;;
25535;SDS011;13431;51.352;6.412;2022-08-19T01:55:33;30.20;;;27.48;;
25535;SDS011;13431;51.352;6.412;2022-08-19T01:58:08;32.00;;;27.83;;
25535;SDS011;13431;51.352;6.412;2022-08-19T02:00:49;32.25;;;29.42;;
25535;SDS011;13431;51.352;6.412;2022-08-19T02:03:16;32.20;;;29.10;;
25535;SDS011;13431;51.352;6.412;2022-08-19T02:05:44;32.17;;;29.08;;
25535;SDS011;13431;51.352;6.412;2022-08-19T02:08:12;30.85;;;27.98;;
25535;SDS011;13431;51.352;6.412;2022-08-19T02:10:40;33.63;;;30.63;;
25535;SDS011;13431;51.352;6.412;2022-08-19T02:13:09;30.58;;;27.98;;
25535;SDS011;13431;51.352;6.412;2022-08-19T02:15:38;33.50;;;30.23;;
25535;SDS011;13431;51.352;6.412;2022-08-19T02:18:06;34.53;;;31.42;;
25535;SDS011;13431;51.352;6.412;2022-08-19T02:20:35;32.80;;;29.52;;
25535;SDS011;13431;51.352;6.412;2022-08-19T02:23:03;32.00;;;28.83;;
25535;SDS011;13431;51.352;6.412;2022-08-19T02:25:40;33.05;;;29.90;;
25535;SDS011;13431;51.352;6.412;2022-08-19T02:28:08;33.75;;;30.63;;
25535;SDS011;13431;51.352;6.412;2022-08-19T02:30:35;34.60;;;31.20;;
25535;SDS011;13431;51.352;6.412;2022-08-19T02:33:04;36.53;;;33.22;;
25535;SDS011;13431;51.352;6.412;2022-08-19T02:35:32;35.80;;;32.25;;
25535;SDS011;13431;51.352;6.412;2022-08-19T02:37:59;39.70;;;35.60;;
25535;SDS011;13431;51.352;6.412;2022-08-19T02:40:49;38.42;;;34.72;;
25535;SDS011;13431;51.352;6.412;2022-08-19T02:43:20;39.45;;;35.55;;
25535;SDS011;13431;51.352;6.412;2022-08-19T02:45:50;40.85;;;36.85;;
25535;SDS011;13431;51.352;6.412;2022-08-19T02:48:19;43.15;;;39.00;;
25535;SDS011;13431;51.352;6.412;2022-08-19T02:50:48;45.40;;;40.50;;
25535;SDS011;13431;51.352;6.412;2022-08-19T02:53:22;42.97;;;38.45;;
25535;SDS011;13431;51.352;6.412;2022-08-19T02:55:51;43.20;;;39.08;;
25535;SDS011;13431;51.352;6.412;2022-08-19T02:58:19;44.75;;;40.08;;
25535;SDS011;13431;51.352;6.412;2022-08-19T03:00:49;47.28;;;42.28;;
25535;SDS011;13431;51.352;6.412;2022-08-19T03:03:19;46.30;;;41.75;;
25535;SDS011;13431;51.352;6.412;2022-08-19T03:05:47;47.15;;;42.25;;
25535;SDS011;13431;51.352;6.412;2022-08-19T03:08:23;46.47;;;41.78;;
25535;SDS011;13431;51.352;6.412;2022-08-19T03:10:52;47.00;;;42.13;;
25535;SDS011;13431;51.352;6.412;2022-08-19T03:13:21;46.80;;;42.00;;
25535;SDS011;13431;51.352;6.412;2022-08-19T03:15:49;50.17;;;45.10;;
25535;SDS011;13431;51.352;6.412;2022-08-19T03:18:17;48.58;;;43.25;;
25535;SDS011;13431;51.352;6.412;2022-08-19T03:20:46;51.35;;;45.85;;
25535;SDS011;13431;51.352;6.412;2022-08-19T03:23:15;53.45;;;47.60;;
25535;SDS011;13431;51.352;6.412;2022-08-19T03:25:44;49.88;;;44.78;;
25535;SDS011;13431;51.352;6.412;2022-08-19T03:28:28;50.70;;;45.22;;
25535;SDS011;13431;51.352;6.412;2022-08-19T03:30:57;49.90;;;44.50;;
25535;SDS011;13431;51.352;6.412;2022-08-19T03:33:27;51.42;;;45.80;;
25535;SDS011;13431;51.352;6.412;2022-08-19T03:36:02;47.95;;;42.88;;
25535;SDS011;13431;51.352;6.412;2022-08-19T03:38:37;53.00;;;46.15;;
25535;SDS011;13431;51.352;6.412;2022-08-19T03:41:23;52.55;;;46.95;;
25535;SDS011;13431;51.352;6.412;2022-08-19T03:44:10;55.45;;;48.45;;
25535;SDS011;13431;51.352;6.412;2022-08-19T03:46:44;56.85;;;48.88;;
25535;SDS011;13431;51.352;6.412;2022-08-19T03:49:14;53.25;;;47.55;;
25535;SDS011;13431;51.352;6.412;2022-08-19T03:51:44;56.85;;;50.47;;
25535;SDS011;13431;51.352;6.412;2022-08-19T03:54:14;54.58;;;48.63;;
25535;SDS011;13431;51.352;6.412;2022-08-19T03:56:44;57.38;;;48.80;;
25535;SDS011;13431;51.352;6.412;2022-08-19T03:59:17;58.70;;;52.33;;
25535;SDS011;13431;51.352;6.412;2022-08-19T04:01:53;60.55;;;52.05;;
25535;SDS011;13431;51.352;6.412;2022-08-19T04:04:22;57.72;;;51.67;;
25535;SDS011;13431;51.352;6.412;2022-08-19T04:06:55;57.95;;;50.17;;
25535;SDS011;13431;51.352;6.412;2022-08-19T04:09:23;60.50;;;53.90;;
25535;SDS011;13431;51.352;6.412;2022-08-19T04:11:52;60.35;;;53.63;;
25535;SDS011;13431;51.352;6.412;2022-08-19T04:14:22;56.53;;;50.30;;
25535;SDS011;13431;51.352;6.412;2022-08-19T04:16:51;63.70;;;53.90;;
25535;SDS011;13431;51.352;6.412;2022-08-19T04:19:19;64.03;;;53.20;;
25535;SDS011;13431;51.352;6.412;2022-08-19T04:21:48;62.05;;;52.65;;
25535;SDS011;13431;51.352;6.412;2022-08-19T04:24:17;59.00;;;52.13;;
25535;SDS011;13431;51.352;6.412;2022-08-19T04:26:45;61.00;;;52.35;;
25535;SDS011;13431;51.352;6.412;2022-08-19T04:29:15;63.70;;;54.42;;
25535;SDS011;13431;51.352;6.412;2022-08-19T04:31:45;61.50;;;54.13;;
25535;SDS011;13431;51.352;6.412;2022-08-19T04:34:14;65.68;;;53.97;;
25535;SDS011;13431;51.352;6.412;2022-08-19T04:36:44;66.57;;;54.95;;
25535;SDS011;13431;51.352;6.412;2022-08-19T04:39:13;61.67;;;53.88;;
25535;SDS011;13431;51.352;6.412;2022-08-19T04:41:43;67.10;;;53.97;;
25535;SDS011;13431;51.352;6.412;2022-08-19T04:44:34;67.47;;;55.58;;
25535;SDS011;13431;51.352;6.412;2022-08-19T04:47:12;66.70;;;55.92;;
25535;SDS011;13431;51.352;6.412;2022-08-19T04:49:40;69.43;;;58.47;;
25535;SDS011;13431;51.352;6.412;2022-08-19T04:52:08;71.45;;;58.30;;
25535;SDS011;13431;51.352;6.412;2022-08-19T04:54:36;69.35;;;56.60;;
25535;SDS011;13431;51.352;6.412;2022-08-19T04:57:08;72.07;;;59.22;;
25535;SDS011;13431;51.352;6.412;2022-08-19T04:59:37;67.25;;;57.35;;
25535;SDS011;13431;51.352;6.412;2022-08-19T05:02:06;72.50;;;58.88;;
25535;SDS011;13431;51.352;6.412;2022-08-19T05:04:35;71.63;;;57.03;;
25535;SDS011;13431;51.352;6.412;2022-08-19T05:07:07;73.80;;;58.03;;
25535;SDS011;13431;51.352;6.412;2022-08-19T05:09:34;71.78;;;57.13;;
25535;SDS011;13431;51.352;6.412;2022-08-19T05:12:22;72.90;;;54.53;;
25535;SDS011;13431;51.352;6.412;2022-08-19T05:14:55;66.47;;;53.95;;
25535;SDS011;13431;51.352;6.412;2022-08-19T05:17:25;63.72;;;51.58;;
25535;SDS011;13431;51.352;6.412;2022-08-19T05:19:57;62.88;;;51.47;;
25535;SDS011;13431;51.352;6.412;2022-08-19T05:22:44;62.47;;;52.08;;
25535;SDS011;13431;51.352;6.412;2022-08-19T05:25:14;64.70;;;50.00;;
25535;SDS011;13431;51.352;6.412;2022-08-19T05:27:45;58.00;;;48.35;;
25535;SDS011;13431;51.352;6.412;2022-08-19T05:30:13;59.63;;;48.97;;
25535;SDS011;13431;51.352;6.412;2022-08-19T05:32:41;56.55;;;47.33;;
25535;SDS011;13431;51.352;6.412;2022-08-19T05:35:09;55.70;;;47.58;;
25535;SDS011;13431;51.352;6.412;2022-08-19T05:37:38;52.30;;;45.30;;
25535;SDS011;13431;51.352;6.412;2022-08-19T05:40:09;51.05;;;44.10;;
25535;SDS011;13431;51.352;6.412;2022-08-19T05:42:37;52.88;;;45.55;;
25535;SDS011;13431;51.352;6.412;2022-08-19T05:45:05;48.80;;;43.50;;
25535;SDS011;13431;51.352;6.412;2022-08-19T05:47:33;49.25;;;43.25;;
25535;SDS011;13431;51.352;6.412;2022-08-19T05:50:07;48.92;;;43.45;;
25535;SDS011;13431;51.352;6.412;2022-08-19T05:52:36;46.78;;;41.75;;
25535;SDS011;13431;51.352;6.412;2022-08-19T05:55:09;47.40;;;40.55;;
25535;SDS011;13431;51.352;6.412;2022-08-19T05:57:37;48.50;;;43.40;;
25535;SDS011;13431;51.352;6.412;2022-08-19T06:00:05;46.08;;;41.22;;
25535;SDS011;13431;51.352;6.412;2022-08-19T06:02:37;41.67;;;37.63;;
25535;SDS011;13431;51.352;6.412;2022-08-19T06:05:06;38.38;;;34.78;;
25535;SDS011;13431;51.352;6.412;2022-08-19T06:07:36;36.70;;;33.53;;
25535;SDS011;13431;51.352;6.412;2022-08-19T06:10:04;36.78;;;33.33;;
25535;SDS011;13431;51.352;6.412;2022-08-19T06:12:34;34.45;;;31.38;;
25535;SDS011;13431;51.352;6.412;2022-08-19T06:15:11;36.97;;;33.70;;
25535;SDS011;13431;51.352;6.412;2022-08-19T06:17:41;36.17;;;32.85;;
25535;SDS011;13431;51.352;6.412;2022-08-19T06:20:13;33.65;;;30.00;;
25535;SDS011;13431;51.352;6.412;2022-08-19T06:22:42;34.25;;;31.15;;
25535;SDS011;13431;51.352;6.412;2022-08-19T06:25:19;34.42;;;31.48;;
25535;SDS011;13431;51.352;6.412;2022-08-19T06:27:46;33.30;;;30.25;;
25535;SDS011;13431;51.352;6.412;2022-08-19T06:30:35;31.40;;;28.70;;
25535;SDS011;13431;51.352;6.412;2022-08-19T06:33:03;31.27;;;28.50;;
25535;SDS011;13431;51.352;6.412;2022-08-19T06:35:30;33.13;;;30.13;;
25535;SDS011;13431;51.352;6.412;2022-08-19T06:37:57;33.67;;;30.83;;
25535;SDS011;13431;51.352;6.412;2022-08-19T06:40:26;34.80;;;31.80;;
25535;SDS011;13431;51.352;6.412;2022-08-19T06:42:54;36.50;;;33.17;;
25535;SDS011;13431;51.352;6.412;2022-08-19T06:45:23;36.40;;;33.00;;
25535;SDS011;13431;51.352;6.412;2022-08-19T06:48:01;37.15;;;33.42;;
25535;SDS011;13431;51.352;6.412;2022-08-19T06:50:29;39.90;;;36.10;;
25535;SDS011;13431;51.352;6.412;2022-08-19T06:52:56;43.63;;;39.42;;
25535;SDS011;13431;51.352;6.412;2022-08-19T06:55:30;42.58;;;38.83;;
25535;SDS011;13431;51.352;6.412;2022-08-19T06:58:01;47.65;;;43.08;;
25535;SDS011;13431;51.352;6.412;2022-08-19T07:00:30;46.50;;;41.95;;
25535;SDS011;13431;51.352;6.412;2022-08-19T07:02:58;47.15;;;42.65;;
25535;SDS011;13431;51.352;6.412;2022-08-19T07:05:40;48.38;;;43.75;;
25535;SDS011;13431;51.352;6.412;2022-08-19T07:08:12;47.10;;;42.75;;
25535;SDS011;13431;51.352;6.412;2022-08-19T07:10:42;46.72;;;42.45;;
25535;SDS011;13431;51.352;6.412;2022-08-19T07:13:11;46.63;;;42.10;;
25535;SDS011;13431;51.352;6.412;2022-08-19T07:15:38;48.75;;;44.17;;
25535;SDS011;13431;51.352;6.412;2022-08-19T07:18:06;47.88;;;43.08;;
25535;SDS011;13431;51.352;6.412;2022-08-19T07:20:38;47.60;;;42.63;;
25535;SDS011;13431;51.352;6.412;2022-08-19T07:23:08;45.70;;;41.08;;
25535;SDS011;13431;51.352;6.412;2022-08-19T07:25:42;47.30;;;42.55;;
25535;SDS011;13431;51.352;6.412;2022-08-19T07:28:10;47.83;;;43.03;;
25535;SDS011;13431;51.352;6.412;2022-08-19T07:30:50;47.53;;;42.70;;
25535;SDS011;13431;51.352;6.412;2022-08-19T07:33:18;46.50;;;41.95;;
25535;SDS011;13431;51.352;6.412;2022-08-19T07:35:46;46.15;;;41.40;;
25535;SDS011;13431;51.352;6.412;2022-08-19T07:38:14;46.72;;;42.03;;
25535;SDS011;13431;51.352;6.412;2022-08-19T07:40:43;46.97;;;42.28;;
25535;SDS011;13431;51.352;6.412;2022-08-19T07:43:12;45.28;;;40.67;;
25535;SDS011;13431;51.352;6.412;2022-08-19T07:45:44;44.28;;;39.92;;
25535;SDS011;13431;51.352;6.412;2022-08-19T07:48:12;45.63;;;41.00;;
25535;SDS011;13431;51.352;6.412;2022-08-19T07:50:41;45.22;;;40.53;;
25535;SDS011;13431;51.352;6.412;2022-08-19T07:53:08;47.20;;;42.80;;
25535;SDS011;13431;51.352;6.412;2022-08-19T07:55:35;46.92;;;42.20;;
25535;SDS011;13431;51.352;6.412;2022-08-19T07:58:09;46.70;;;42.25;;
25535;SDS011;13431;51.352;6.412;2022-08-19T08:00:38;47.30;;;42.88;;
25535;SDS011;13431;51.352;6.412;2022-08-19T08:03:06;46.35;;;42.00;;
25535;SDS011;13431;51.352;6.412;2022-08-19T08:05:35;47.50;;;43.03;;
25535;SDS011;13431;51.352;6.412;2022-08-19T08:08:21;44.65;;;40.40;;
25535;SDS011;13431;51.352;6.412;2022-08-19T08:11:16;48.05;;;43.33;;
25535;SDS011;13431;51.352;6.412;2022-08-19T08:13:46;45.80;;;41.30;;
25535;SDS011;13431;51.352;6.412;2022-08-19T08:16:27;42.20;;;38.58;;
25535;SDS011;13431;51.352;6.412;2022-08-19T08:19:00;41.67;;;37.90;;
25535;SDS011;13431;51.352;6.412;2022-08-19T08:21:28;41.63;;;37.72;;
25535;SDS011;13431;51.352;6.412;2022-08-19T08:23:55;39.75;;;35.97;;
25535;SDS011;13431;51.352;6.412;2022-08-19T08:26:23;37.22;;;33.55;;
25535;SDS011;13431;51.352;6.412;2022-08-19T08:28:51;36.03;;;32.88;;
25535;SDS011;13431;51.352;6.412;2022-08-19T08:31:19;37.70;;;33.97;;
25535;SDS011;13431;51.352;6.412;2022-08-19T08:33:47;34.30;;;30.98;;
25535;SDS011;13431;51.352;6.412;2022-08-19T08:36:15;33.75;;;30.65;;
25535;SDS011;13431;51.352;6.412;2022-08-19T08:38:43;32.28;;;29.17;;
25535;SDS011;13431;51.352;6.412;2022-08-19T08:44:01;32.00;;;29.10;;
25535;SDS011;13431;51.352;6.412;2022-08-19T08:46:50;29.88;;;26.98;;
25535;SDS011;13431;51.352;6.412;2022-08-19T08:52:18;26.42;;;23.83;;
25535;SDS011;13431;51.352;6.412;2022-08-19T08:54:59;27.85;;;25.23;;
25535;SDS011;13431;51.352;6.412;2022-08-19T09:00:20;28.17;;;25.13;;
25535;SDS011;13431;51.352;6.412;2022-08-19T09:02:54;25.27;;;22.58;;
25535;SDS011;13431;51.352;6.412;2022-08-19T09:05:40;22.92;;;20.92;;
25535;SDS011;13431;51.352;6.412;2022-08-19T09:08:27;21.30;;;19.30;;
25535;SDS011;13431;51.352;6.412;2022-08-19T09:10:59;20.77;;;18.77;;
25535;SDS011;13431;51.352;6.412;2022-08-19T09:14:00;18.77;;;16.98;;
25535;SDS011;13431;51.352;6.412;2022-08-19T09:16:29;23.73;;;21.52;;
25535;SDS011;13431;51.352;6.412;2022-08-19T09:19:01;21.63;;;19.52;;
25535;SDS011;13431;51.352;6.412;2022-08-19T09:21:32;20.13;;;18.27;;
25535;SDS011;13431;51.352;6.412;2022-08-19T09:24:00;19.45;;;17.50;;
25535;SDS011;13431;51.352;6.412;2022-08-19T09:26:29;16.38;;;14.98;;
25535;SDS011;13431;51.352;6.412;2022-08-19T09:29:18;20.05;;;16.98;;
25535;SDS011;13431;51.352;6.412;2022-08-19T09:31:48;16.85;;;15.05;;
25535;SDS011;13431;51.352;6.412;2022-08-19T09:34:16;16.13;;;14.73;;
25535;SDS011;13431;51.352;6.412;2022-08-19T09:36:48;14.27;;;12.95;;
25535;SDS011;13431;51.352;6.412;2022-08-19T09:39:20;16.60;;;15.02;;
25535;SDS011;13431;51.352;6.412;2022-08-19T09:41:48;15.45;;;14.02;;
25535;SDS011;13431;51.352;6.412;2022-08-19T09:44:17;15.07;;;13.82;;
25535;SDS011;13431;51.352;6.412;2022-08-19T09:46:47;16.58;;;13.43;;
25535;SDS011;13431;51.352;6.412;2022-08-19T09:49:15;13.68;;;12.48;;
25535;SDS011;13431;51.352;6.412;2022-08-19T09:51:44;14.48;;;12.98;;
25535;SDS011;13431;51.352;6.412;2022-08-19T09:54:17;14.45;;;12.93;;
25535;SDS011;13431;51.352;6.412;2022-08-19T09:59:18;15.43;;;12.65;;
25535;SDS011;13431;51.352;6.412;2022-08-19T10:01:47;13.60;;;12.20;;
25535;SDS011;13431;51.352;6.412;2022-08-19T10:04:15;17.30;;;13.73;;
25535;SDS011;13431;51.352;6.412;2022-08-19T10:06:48;15.63;;;14.03;;
25535;SDS011;13431;51.352;6.412;2022-08-19T10:09:21;16.60;;;15.03;;
25535;SDS011;13431;51.352;6.412;2022-08-19T10:12:00;15.35;;;13.85;;
25535;SDS011;13431;51.352;6.412;2022-08-19T10:14:32;14.82;;;13.43;;
25535;SDS011;13431;51.352;6.412;2022-08-19T10:17:00;14.18;;;12.82;;
25535;SDS011;13431;51.352;6.412;2022-08-19T10:19:45;14.98;;;13.65;;
25535;SDS011;13431;51.352;6.412;2022-08-19T10:22:21;15.15;;;13.73;;
25535;SDS011;13431;51.352;6.412;2022-08-19T10:24:51;13.73;;;12.43;;
25535;SDS011;13431;51.352;6.412;2022-08-19T10:27:19;15.65;;;13.48;;
25535;SDS011;13431;51.352;6.412;2022-08-19T10:29:47;16.27;;;14.85;;
25535;SDS011;13431;51.352;6.412;2022-08-19T10:32:14;16.27;;;14.80;;
25535;SDS011;13431;51.352;6.412;2022-08-19T10:34:42;15.13;;;13.63;;
25535;SDS011;13431;51.352;6.412;2022-08-19T10:37:15;15.18;;;13.32;;
25535;SDS011;13431;51.352;6.412;2022-08-19T10:39:57;15.60;;;13.18;;
25535;SDS011;13431;51.352;6.412;2022-08-19T10:42:24;14.52;;;13.10;;
25535;SDS011;13431;51.352;6.412;2022-08-19T10:44:52;14.73;;;13.18;;
25535;SDS011;13431;51.352;6.412;2022-08-19T10:47:19;15.07;;;13.60;;
25535;SDS011;13431;51.352;6.412;2022-08-19T10:49:52;16.23;;;12.57;;
25535;SDS011;13431;51.352;6.412;2022-08-19T10:52:40;14.23;;;12.73;;
25535;SDS011;13431;51.352;6.412;2022-08-19T10:55:20;12.55;;;11.35;;
25535;SDS011;13431;51.352;6.412;2022-08-19T10:58:15;11.57;;;10.40;;
25535;SDS011;13431;51.352;6.412;2022-08-19T11:00:50;10.50;;;9.57;;
25535;SDS011;13431;51.352;6.412;2022-08-19T11:03:21;12.68;;;11.35;;
25535;SDS011;13431;51.352;6.412;2022-08-19T11:06:03;14.65;;;10.93;;
25535;SDS011;13431;51.352;6.412;2022-08-19T11:08:32;10.70;;;9.40;;
25535;SDS011;13431;51.352;6.412;2022-08-19T11:11:02;10.18;;;8.35;;
25535;SDS011;13431;51.352;6.412;2022-08-19T11:13:31;11.27;;;10.15;;
25535;SDS011;13431;51.352;6.412;2022-08-19T11:16:05;10.40;;;9.32;;
25535;SDS011;13431;51.352;6.412;2022-08-19T11:18:36;14.65;;;10.68;;
25535;SDS011;13431;51.352;6.412;2022-08-19T11:21:09;10.52;;;9.52;;
25535;SDS011;13431;51.352;6.412;2022-08-19T11:23:37;10.38;;;9.38;;
25535;SDS011;13431;51.352;6.412;2022-08-19T11:26:05;10.27;;;9.30;;
25535;SDS011;13431;51.352;6.412;2022-08-19T11:28:33;10.75;;;9.60;;
25535;SDS011;13431;51.352;6.412;2022-08-19T11:31:00;10.50;;;9.50;;
25535;SDS011;13431;51.352;6.412;2022-08-19T11:33:30;15.32;;;9.15;;
25535;SDS011;13431;51.352;6.412;2022-08-19T11:35:59;10.07;;;8.48;;
25535;SDS011;13431;51.352;6.412;2022-08-19T11:38:27;7.65;;;6.85;;
25535;SDS011;13431;51.352;6.412;2022-08-19T11:40:56;7.15;;;6.47;;
25535;SDS011;13431;51.352;6.412;2022-08-19T11:43:25;6.65;;;6.07;;
25535;SDS011;13431;51.352;6.412;2022-08-19T11:45:54;8.60;;;6.13;;
25535;SDS011;13431;51.352;6.412;2022-08-19T11:48:22;8.60;;;5.90;;
25535;SDS011;13431;51.352;6.412;2022-08-19T11:50:51;10.70;;;6.47;;
25535;SDS011;13431;51.352;6.412;2022-08-19T11:53:22;10.38;;;6.78;;
25535;SDS011;13431;51.352;6.412;2022-08-19T11:55:52;7.72;;;7.03;;
25535;SDS011;13431;51.352;6.412;2022-08-19T11:58:23;6.35;;;5.75;;
25535;SDS011;13431;51.352;6.412;2022-08-19T12:00:52;9.15;;;6.78;;
25535;SDS011;13431;51.352;6.412;2022-08-19T12:03:19;8.20;;;7.35;;
25535;SDS011;13431;51.352;6.412;2022-08-19T12:05:47;9.18;;;8.27;;
25535;SDS011;13431;51.352;6.412;2022-08-19T12:08:14;9.40;;;7.53;;
25535;SDS011;13431;51.352;6.412;2022-08-19T12:10:43;8.35;;;7.40;;
25535;SDS011;13431;51.352;6.412;2022-08-19T12:13:12;10.20;;;9.20;;
25535;SDS011;13431;51.352;6.412;2022-08-19T12:15:45;8.73;;;6.15;;
25535;SDS011;13431;51.352;6.412;2022-08-19T12:18:14;6.97;;;5.72;;
25535;SDS011;13431;51.352;6.412;2022-08-19T12:20:42;6.38;;;5.75;;
25535;SDS011;13431;51.352;6.412;2022-08-19T12:23:10;6.78;;;6.18;;
25535;SDS011;13431;51.352;6.412;2022-08-19T12:25:42;8.95;;;7.07;;
25535;SDS011;13431;51.352;6.412;2022-08-19T12:28:22;7.45;;;6.40;;
25535;SDS011;13431;51.352;6.412;2022-08-19T12:30:51;7.53;;;6.18;;
25535;SDS011;13431;51.352;6.412;2022-08-19T12:33:18;6.30;;;5.70;;
25535;SDS011;13431;51.352;6.412;2022-08-19T12:35:46;7.47;;;5.97;;
25535;SDS011;13431;51.352;6.412;2022-08-19T12:38:14;7.55;;;5.70;;
25535;SDS011;13431;51.352;6.412;2022-08-19T12:40:41;5.32;;;4.85;;
25535;SDS011;13431;51.352;6.412;2022-08-19T12:43:12;6.15;;;5.57;;
25535;SDS011;13431;51.352;6.412;2022-08-19T12:45:40;11.15;;;5.60;;
25535;SDS011;13431;51.352;6.412;2022-08-19T12:48:09;9.30;;;5.20;;
25535;SDS011;13431;51.352;6.412;2022-08-19T12:50:56;13.43;;;6.30;;
25535;SDS011;13431;51.352;6.412;2022-08-19T12:53:23;5.80;;;4.82;;
25535;SDS011;13431;51.352;6.412;2022-08-19T12:55:55;6.85;;;6.18;;
25535;SDS011;13431;51.352;6.412;2022-08-19T12:58:23;10.40;;;5.70;;
25535;SDS011;13431;51.352;6.412;2022-08-19T13:00:53;5.00;;;4.60;;
25535;SDS011;13431;51.352;6.412;2022-08-19T13:03:20;8.65;;;5.07;;
25535;SDS011;13431;51.352;6.412;2022-08-19T13:05:55;6.45;;;5.68;;
25535;SDS011;13431;51.352;6.412;2022-08-19T13:08:23;9.45;;;4.68;;
25535;SDS011;13431;51.352;6.412;2022-08-19T13:10:50;5.40;;;4.72;;
25535;SDS011;13431;51.352;6.412;2022-08-19T13:13:18;7.18;;;5.85;;
25535;SDS011;13431;51.352;6.412;2022-08-19T13:15:45;4.68;;;4.28;;
25535;SDS011;13431;51.352;6.412;2022-08-19T13:18:14;5.45;;;4.63;;
25535;SDS011;13431;51.352;6.412;2022-08-19T13:20:41;6.15;;;5.05;;
25535;SDS011;13431;51.352;6.412;2022-08-19T13:23:18;4.85;;;4.35;;
25535;SDS011;13431;51.352;6.412;2022-08-19T13:25:54;5.85;;;5.20;;
25535;SDS011;13431;51.352;6.412;2022-08-19T13:28:23;6.50;;;5.10;;
25535;SDS011;13431;51.352;6.412;2022-08-19T13:30:55;7.05;;;5.68;;
25535;SDS011;13431;51.352;6.412;2022-08-19T13:33:41;8.63;;;6.05;;
25535;SDS011;13431;51.352;6.412;2022-08-19T13:36:08;6.97;;;5.25;;
25535;SDS011;13431;51.352;6.412;2022-08-19T13:38:36;5.38;;;4.82;;
25535;SDS011;13431;51.352;6.412;2022-08-19T13:41:05;5.32;;;4.30;;
25535;SDS011;13431;51.352;6.412;2022-08-19T13:43:37;6.15;;;4.63;;
25535;SDS011;13431;51.352;6.412;2022-08-19T13:46:08;6.03;;;4.30;;
25535;SDS011;13431;51.352;6.412;2022-08-19T13:48:36;6.55;;;4.13;;
25535;SDS011;13431;51.352;6.412;2022-08-19T13:51:04;5.38;;;3.97;;
25535;SDS011;13431;51.352;6.412;2022-08-19T13:53:32;6.05;;;3.75;;
25535;SDS011;13431;51.352;6.412;2022-08-19T13:55:59;5.53;;;3.97;;
25535;SDS011;13431;51.352;6.412;2022-08-19T13:58:26;4.07;;;3.40;;
25535;SDS011;13431;51.352;6.412;2022-08-19T14:00:54;8.20;;;4.57;;
25535;SDS011;13431;51.352;6.412;2022-08-19T14:03:21;5.85;;;4.00;;
25535;SDS011;13431;51.352;6.412;2022-08-19T14:05:50;6.43;;;4.00;;
25535;SDS011;13431;51.352;6.412;2022-08-19T14:08:17;5.35;;;4.30;;
25535;SDS011;13431;51.352;6.412;2022-08-19T14:10:45;4.45;;;4.03;;
25535;SDS011;13431;51.352;6.412;2022-08-19T14:13:13;4.43;;;3.53;;
25535;SDS011;13431;51.352;6.412;2022-08-19T14:15:46;19.70;;;5.03;;
25535;SDS011;13431;51.352;6.412;2022-08-19T14:18:15;6.53;;;4.72;;
25535;SDS011;13431;51.352;6.412;2022-08-19T14:20:43;5.30;;;4.90;;
25535;SDS011;13431;51.352;6.412;2022-08-19T14:23:11;6.50;;;4.70;;
25535;SDS011;13431;51.352;6.412;2022-08-19T14:25:40;5.85;;;4.93;;
25535;SDS011;13431;51.352;6.412;2022-08-19T14:28:08;9.02;;;5.15;;
25535;SDS011;13431;51.352;6.412;2022-08-19T14:30:36;5.78;;;5.20;;
25535;SDS011;13431;51.352;6.412;2022-08-19T14:33:04;8.13;;;6.13;;
25535;SDS011;13431;51.352;6.412;2022-08-19T14:35:33;7.90;;;6.90;;
25535;SDS011;13431;51.352;6.412;2022-08-19T14:38:02;5.95;;;5.38;;
25535;SDS011;13431;51.352;6.412;2022-08-19T14:40:31;7.65;;;6.95;;
25535;SDS011;13431;51.352;6.412;2022-08-19T14:43:00;7.60;;;6.78;;
25535;SDS011;13431;51.352;6.412;2022-08-19T14:45:32;8.15;;;6.25;;
25535;SDS011;13431;51.352;6.412;2022-08-19T14:48:03;8.68;;;7.28;;
25535;SDS011;13431;51.352;6.412;2022-08-19T14:50:31;7.80;;;6.75;;
25535;SDS011;13431;51.352;6.412;2022-08-19T14:53:00;8.50;;;7.80;;
25535;SDS011;13431;51.352;6.412;2022-08-19T14:55:45;8.30;;;7.28;;
25535;SDS011;13431;51.352;6.412;2022-08-19T14:58:13;8.73;;;7.88;;
25535;SDS011;13431;51.352;6.412;2022-08-19T15:00:57;8.60;;;7.80;;
25535;SDS011;13431;51.352;6.412;2022-08-19T15:03:25;9.23;;;8.27;;
25535;SDS011;13431;51.352;6.412;2022-08-19T15:05:53;10.10;;;9.10;;
25535;SDS011;13431;51.352;6.412;2022-08-19T15:08:25;8.82;;;8.13;;